createdAt,value
2022-11-27T00:01:35.313Z,0.12
2022-11-27T00:04:04.034Z,0.11
2022-11-27T00:06:33.706Z,0.11
2022-11-27T00:09:04.610Z,0.03
2022-11-27T00:11:33.136Z,0.12
2022-11-27T00:14:02.015Z,0.08
2022-11-27T00:16:30.908Z,0.07
2022-11-27T00:18:59.296Z,0.07
2022-11-27T00:21:32.796Z,0.08
2022-11-27T00:24:03.228Z,0.09
2022-11-27T00:26:37.471Z,0.06
2022-11-27T00:29:07.079Z,0.07
2022-11-27T00:31:38.058Z,0.04
2022-11-27T00:34:09.011Z,0.01
2022-11-27T00:36:38.238Z,0.07
2022-11-27T00:39:07.533Z,0.03
2022-11-27T00:41:35.942Z,-0.02
2022-11-27T00:44:04.230Z,0.01
2022-11-27T00:46:34.648Z,0.01
2022-11-27T00:49:05.316Z,-0.02
2022-11-27T00:51:35.061Z,-0.08
2022-11-27T00:54:02.891Z,-0.01
2022-11-27T00:56:33.974Z,0.02
2022-11-27T00:59:03.309Z,0.04
2022-11-27T01:01:34.228Z,0.03
2022-11-27T01:04:03.978Z,0.04
2022-11-27T01:06:32.705Z,0.06
2022-11-27T01:09:01.370Z,0.08
2022-11-27T01:11:31.869Z,0.08
2022-11-27T01:14:10.630Z,0.11
2022-11-27T01:16:43.117Z,0.12
2022-11-27T01:19:13.680Z,0.09
2022-11-27T01:21:42.693Z,0.11
2022-11-27T01:24:11.447Z,0.12
2022-11-27T01:26:43.040Z,0.09
2022-11-27T01:29:11.571Z,0.13
2022-11-27T01:31:39.650Z,0.07
2022-11-27T01:34:10.179Z,0.02
2022-11-27T01:36:38.759Z,0.06
2022-11-27T01:39:07.418Z,0.09
2022-11-27T01:41:37.449Z,0.02
2022-11-27T01:44:25.553Z,0.04
2022-11-27T01:46:59.262Z,0.03
2022-11-27T01:49:32.789Z,0.05
2022-11-27T01:52:05.287Z,0.02
2022-11-27T01:54:41.277Z,0.05
2022-11-27T01:57:20.755Z,0.04
2022-11-27T01:59:49.560Z,0.00
2022-11-27T02:02:18.860Z,0.01
2022-11-27T02:04:46.810Z,0.02
2022-11-27T02:07:15.600Z,0.04
2022-11-27T02:09:44.020Z,0.01
2022-11-27T02:12:25.161Z,0.03
2022-11-27T02:14:56.564Z,0.03
2022-11-27T02:17:33.022Z,0.00
2022-11-27T02:20:04.100Z,0.01
2022-11-27T02:23:00.532Z,-0.02
2022-11-27T02:26:07.234Z,-0.01
2022-11-27T02:29:00.420Z,0.02
2022-11-27T02:32:19.291Z,0.03
2022-11-27T02:35:00.610Z,0.03
2022-11-27T02:37:37.314Z,0.05
2022-11-27T02:40:14.878Z,0.01
2022-11-27T02:42:46.723Z,0.06
2022-11-27T02:45:18.272Z,-0.02
2022-11-27T02:47:47.794Z,0.01
2022-11-27T02:50:21.686Z,-0.02
2022-11-27T02:52:51.240Z,-0.01
2022-11-27T02:55:24.638Z,0.01
2022-11-27T02:57:54.541Z,0.02
2022-11-27T03:00:23.167Z,0.05
2022-11-27T03:02:55.457Z,0.03
2022-11-27T03:05:24.283Z,0.05
2022-11-27T03:08:18.260Z,0.10
2022-11-27T03:11:09.896Z,0.09
2022-11-27T03:13:54.381Z,0.06
2022-11-27T03:16:51.693Z,0.08
2022-11-27T03:19:25.245Z,-0.08
2022-11-27T03:21:58.672Z,0.06
2022-11-27T03:24:28.309Z,0.08
2022-11-27T03:26:59.033Z,0.08
2022-11-27T03:29:28.849Z,0.08
2022-11-27T03:31:58.462Z,0.07
2022-11-27T03:34:26.911Z,0.01
2022-11-27T03:36:56.771Z,0.08
2022-11-27T03:39:25.322Z,0.06
2022-11-27T03:42:15.047Z,0.05
2022-11-27T03:44:58.566Z,0.07
2022-11-27T03:47:34.834Z,0.08
2022-11-27T03:50:02.649Z,0.07
2022-11-27T03:52:43.029Z,0.11
2022-11-27T03:55:28.402Z,0.04
2022-11-27T03:58:07.509Z,0.07
2022-11-27T04:00:37.777Z,0.10
2022-11-27T04:03:10.577Z,0.07
2022-11-27T04:05:39.358Z,0.02
2022-11-27T04:08:07.609Z,0.06
2022-11-27T04:10:36.110Z,0.07
2022-11-27T04:13:04.197Z,0.05
2022-11-27T04:15:32.597Z,0.07
2022-11-27T04:18:01.299Z,0.05
2022-11-27T04:20:29.918Z,0.07
2022-11-27T04:22:58.815Z,0.10
2022-11-27T04:25:27.653Z,0.10
2022-11-27T04:27:56.542Z,0.08
2022-11-27T04:30:24.785Z,0.17
2022-11-27T04:32:53.331Z,0.14
2022-11-27T04:35:21.111Z,0.18
2022-11-27T04:37:49.720Z,0.17
2022-11-27T04:40:17.604Z,0.19
2022-11-27T04:42:46.067Z,0.26
2022-11-27T04:45:14.852Z,0.17
2022-11-27T04:47:42.808Z,0.23
2022-11-27T04:50:11.398Z,0.20
2022-11-27T04:52:39.832Z,0.16
2022-11-27T04:55:07.964Z,0.15
2022-11-27T04:57:37.273Z,0.18
2022-11-27T05:00:06.061Z,0.20
2022-11-27T05:02:34.851Z,0.21
2022-11-27T05:05:03.277Z,0.16
2022-11-27T05:07:31.402Z,0.19
2022-11-27T05:09:59.560Z,0.17
2022-11-27T05:12:27.654Z,0.19
2022-11-27T05:14:55.291Z,0.21
2022-11-27T05:17:23.756Z,0.21
2022-11-27T05:19:51.589Z,0.30
2022-11-27T05:22:20.326Z,0.23
2022-11-27T05:24:48.217Z,0.19
2022-11-27T05:27:16.762Z,0.27
2022-11-27T05:29:45.367Z,0.25
2022-11-27T05:32:57.271Z,0.14
2022-11-27T05:35:25.352Z,0.16
2022-11-27T05:37:53.940Z,0.15
2022-11-27T05:40:21.890Z,0.17
2022-11-27T05:42:50.372Z,0.19
2022-11-27T05:45:18.405Z,0.27
2022-11-27T05:47:47.351Z,0.27
2022-11-27T05:50:15.111Z,0.27
2022-11-27T05:52:43.751Z,0.25
2022-11-27T05:55:11.619Z,0.30
2022-11-27T05:57:40.029Z,0.32
2022-11-27T06:00:09.159Z,0.32
2022-11-27T06:02:37.581Z,0.32
2022-11-27T06:05:06.190Z,0.33
2022-11-27T06:07:34.712Z,0.30
2022-11-27T06:10:02.601Z,0.42
2022-11-27T06:12:32.450Z,0.33
2022-11-27T06:15:01.970Z,0.32
2022-11-27T06:17:30.439Z,0.33
2022-11-27T06:19:58.342Z,0.36
2022-11-27T06:22:27.211Z,0.39
2022-11-27T06:24:55.114Z,0.44
2022-11-27T06:27:23.841Z,0.47
2022-11-27T06:29:51.632Z,0.43
2022-11-27T06:32:19.966Z,0.40
2022-11-27T06:34:47.874Z,0.44
2022-11-27T06:37:16.485Z,0.35
2022-11-27T06:39:44.290Z,0.30
2022-11-27T06:42:13.060Z,0.37
2022-11-27T06:44:41.181Z,0.42
2022-11-27T06:47:10.211Z,0.42
2022-11-27T06:49:38.174Z,0.41
2022-11-27T06:52:06.565Z,0.41
2022-11-27T06:54:34.352Z,0.40
2022-11-27T06:57:02.842Z,0.48
2022-11-27T06:59:30.761Z,0.49
2022-11-27T07:01:59.155Z,0.48
2022-11-27T07:04:27.030Z,0.45
2022-11-27T07:06:55.526Z,0.42
2022-11-27T07:09:23.430Z,0.43
2022-11-27T07:11:51.901Z,0.47
2022-11-27T07:14:20.053Z,0.52
2022-11-27T07:16:48.440Z,0.46
2022-11-27T07:19:16.773Z,0.48
2022-11-27T07:21:44.850Z,0.56
2022-11-27T07:24:13.267Z,0.51
2022-11-27T07:26:41.363Z,0.59
2022-11-27T07:29:09.750Z,0.67
2022-11-27T07:31:38.400Z,0.66
2022-11-27T07:34:11.696Z,0.71
2022-11-27T07:36:42.832Z,0.66
2022-11-27T07:39:11.176Z,0.72
2022-11-27T07:41:39.064Z,0.82
2022-11-27T07:44:07.701Z,0.82
2022-11-27T07:46:36.645Z,0.85
2022-11-27T07:49:04.500Z,0.88
2022-11-27T07:51:32.787Z,0.96
2022-11-27T07:54:00.653Z,0.86
2022-11-27T07:56:29.031Z,0.88
2022-11-27T07:58:58.626Z,0.96
2022-11-27T08:01:26.971Z,1.01
2022-11-27T08:03:55.179Z,1.04
2022-11-27T08:06:25.771Z,1.09
2022-11-27T08:08:56.194Z,1.09
2022-11-27T08:11:30.027Z,1.17
2022-11-27T08:14:00.445Z,1.08
2022-11-27T08:16:29.317Z,1.14
2022-11-27T08:18:58.097Z,1.12
2022-11-27T08:21:27.757Z,1.12
2022-11-27T08:23:57.111Z,1.15
2022-11-27T08:26:27.785Z,1.28
2022-11-27T08:28:56.621Z,1.35
2022-11-27T08:31:25.294Z,1.32
2022-11-27T08:33:53.301Z,1.31
2022-11-27T08:36:23.078Z,1.40
2022-11-27T08:38:51.142Z,1.42
2022-11-27T08:41:19.724Z,1.42
2022-11-27T08:43:47.662Z,1.50
2022-11-27T08:46:16.353Z,1.50
2022-11-27T08:48:44.831Z,1.54
2022-11-27T08:51:15.020Z,1.61
2022-11-27T08:53:46.001Z,1.62
2022-11-27T08:56:20.094Z,1.64
2022-11-27T08:58:48.431Z,1.79
2022-11-27T09:01:19.391Z,1.77
2022-11-27T09:03:48.123Z,1.80
2022-11-27T09:06:23.583Z,1.84
2022-11-27T09:08:53.064Z,1.85
2022-11-27T09:11:21.590Z,1.84
2022-11-27T09:13:49.842Z,1.81
2022-11-27T09:16:20.216Z,1.90
2022-11-27T09:18:50.698Z,1.93
2022-11-27T09:21:21.012Z,1.91
2022-11-27T09:23:48.825Z,1.98
2022-11-27T09:26:18.618Z,1.98
2022-11-27T09:28:46.531Z,1.97
2022-11-27T09:31:16.000Z,2.05
2022-11-27T09:33:44.558Z,2.04
2022-11-27T09:36:15.523Z,1.98
2022-11-27T09:38:43.823Z,2.06
2022-11-27T09:41:14.530Z,2.11
2022-11-27T09:43:52.078Z,2.14
2022-11-27T09:46:46.585Z,2.17
2022-11-27T09:49:20.795Z,2.22
2022-11-27T09:51:57.949Z,2.28
2022-11-27T09:54:52.255Z,2.25
2022-11-27T09:57:27.917Z,2.35
2022-11-27T09:59:56.300Z,2.37
2022-11-27T10:02:29.655Z,2.47
2022-11-27T10:05:15.874Z,2.44
2022-11-27T10:08:22.120Z,2.57
2022-11-27T10:11:11.691Z,2.54
2022-11-27T10:13:52.139Z,2.50
2022-11-27T10:16:31.238Z,2.58
2022-11-27T10:19:17.647Z,2.66
2022-11-27T10:21:52.148Z,2.75
2022-11-27T10:24:39.308Z,2.74
2022-11-27T10:27:22.054Z,2.78
2022-11-27T10:29:57.085Z,2.90
2022-11-27T10:32:54.501Z,2.82
2022-11-27T10:35:24.758Z,2.90
2022-11-27T10:38:06.435Z,2.99
2022-11-27T10:40:41.583Z,2.92
2022-11-27T10:43:35.964Z,2.94
2022-11-27T10:46:33.136Z,2.96
2022-11-27T10:49:01.137Z,2.98
2022-11-27T10:51:32.787Z,2.93
2022-11-27T10:54:02.112Z,2.97
2022-11-27T10:57:07.775Z,3.00
2022-11-27T10:59:43.000Z,3.03
2022-11-27T11:02:34.422Z,3.08
2022-11-27T11:05:40.908Z,3.00
2022-11-27T11:08:21.067Z,3.02
2022-11-27T11:10:59.286Z,3.08
2022-11-27T11:13:29.529Z,3.13
2022-11-27T11:16:04.635Z,3.20
2022-11-27T11:18:36.129Z,3.23
2022-11-27T11:21:07.782Z,3.25
2022-11-27T11:23:39.786Z,3.23
2022-11-27T11:26:24.020Z,3.21
2022-11-27T11:28:54.994Z,3.26
2022-11-27T11:31:29.793Z,3.20
2022-11-27T11:34:21.502Z,3.26
2022-11-27T11:37:01.666Z,3.31
2022-11-27T11:39:35.639Z,3.32
2022-11-27T11:42:10.542Z,3.38
2022-11-27T11:44:41.153Z,3.27
2022-11-27T11:47:17.545Z,3.32
2022-11-27T11:49:46.712Z,3.26
2022-11-27T11:52:14.956Z,3.20
2022-11-27T11:55:07.477Z,3.26
2022-11-27T11:57:57.519Z,3.27
2022-11-27T12:00:31.566Z,3.27
2022-11-27T12:03:23.703Z,3.27
2022-11-27T12:06:27.880Z,3.32
2022-11-27T12:09:23.893Z,3.33
2022-11-27T12:11:54.782Z,3.37
2022-11-27T12:14:43.996Z,3.40
2022-11-27T12:17:30.617Z,3.36
2022-11-27T12:20:09.967Z,3.35
2022-11-27T12:22:44.590Z,3.35
2022-11-27T12:25:34.026Z,3.35
2022-11-27T12:28:11.463Z,3.37
2022-11-27T12:30:48.246Z,3.42
2022-11-27T12:33:44.581Z,3.41
2022-11-27T12:36:31.713Z,3.44
2022-11-27T12:39:18.274Z,3.47
2022-11-27T12:42:04.848Z,3.47
2022-11-27T12:45:02.742Z,3.48
2022-11-27T12:47:47.300Z,3.39
2022-11-27T12:50:27.737Z,3.33
2022-11-27T12:53:26.933Z,3.20
2022-11-27T12:56:01.366Z,3.25
2022-11-27T12:58:33.304Z,3.19
2022-11-27T13:01:08.570Z,3.26
2022-11-27T13:03:40.086Z,3.26
2022-11-27T13:06:15.544Z,3.29
2022-11-27T13:08:52.282Z,3.34
2022-11-27T13:11:24.737Z,3.32
2022-11-27T13:14:04.275Z,3.32
2022-11-27T13:16:35.527Z,3.35
2022-11-27T13:19:21.885Z,3.32
2022-11-27T13:21:51.499Z,3.33
2022-11-27T13:24:26.663Z,3.33
2022-11-27T13:27:17.716Z,3.39
2022-11-27T13:30:10.229Z,3.40
2022-11-27T13:32:41.390Z,3.37
2022-11-27T13:35:31.278Z,3.45
2022-11-27T13:38:10.824Z,3.43
2022-11-27T13:40:42.704Z,3.49
2022-11-27T13:43:34.600Z,3.46
2022-11-27T13:46:08.656Z,3.40
2022-11-27T13:48:42.816Z,3.48
2022-11-27T13:51:12.428Z,3.48
2022-11-27T13:53:43.118Z,3.31
2022-11-27T13:56:10.782Z,3.28
2022-11-27T13:58:41.473Z,3.30
2022-11-27T14:01:15.615Z,3.33
2022-11-27T14:03:44.961Z,3.38
2022-11-27T14:06:28.567Z,3.38
2022-11-27T14:09:05.753Z,3.41
2022-11-27T14:11:47.849Z,3.43
2022-11-27T14:14:20.085Z,3.38
2022-11-27T14:17:03.025Z,3.39
2022-11-27T14:19:46.913Z,3.36
2022-11-27T14:23:11.695Z,3.35
2022-11-27T14:25:41.395Z,3.27
2022-11-27T14:28:28.106Z,3.24
2022-11-27T14:30:59.619Z,3.23
2022-11-27T14:33:59.526Z,3.21
2022-11-27T14:36:31.198Z,3.19
2022-11-27T14:38:59.184Z,3.14
2022-11-27T14:41:28.606Z,3.09
2022-11-27T14:44:05.232Z,3.05
2022-11-27T14:46:36.023Z,3.03
2022-11-27T14:49:04.538Z,3.01
2022-11-27T14:51:37.877Z,3.03
2022-11-27T14:54:17.632Z,3.05
2022-11-27T14:56:46.360Z,3.03
2022-11-27T14:59:20.842Z,2.96
2022-11-27T15:02:04.242Z,2.85
2022-11-27T15:04:37.752Z,2.81
2022-11-27T15:07:11.354Z,2.76
2022-11-27T15:09:47.400Z,2.73
2022-11-27T15:12:21.481Z,2.73
2022-11-27T15:15:09.233Z,2.58
2022-11-27T15:17:39.538Z,2.51
2022-11-27T15:20:15.755Z,2.46
2022-11-27T15:22:58.226Z,2.44
2022-11-27T15:25:40.217Z,2.42
2022-11-27T15:28:34.432Z,2.32
2022-11-27T15:31:03.487Z,2.18
2022-11-27T15:33:34.121Z,2.15
2022-11-27T15:36:21.192Z,2.04
2022-11-27T15:38:52.754Z,1.96
2022-11-27T15:41:23.681Z,1.90
2022-11-27T15:43:53.120Z,1.89
2022-11-27T15:46:30.672Z,1.87
2022-11-27T15:48:59.309Z,1.73
2022-11-27T15:51:27.387Z,1.73
2022-11-27T15:53:56.068Z,1.70
2022-11-27T15:56:24.220Z,1.71
2022-11-27T15:58:52.923Z,1.69
2022-11-27T16:01:21.575Z,1.64
2022-11-27T16:03:50.301Z,1.64
2022-11-27T16:06:21.192Z,1.65
2022-11-27T16:08:57.639Z,1.69
2022-11-27T16:11:27.512Z,1.73
2022-11-27T16:13:57.085Z,1.75
2022-11-27T16:16:26.097Z,1.73
2022-11-27T16:19:02.862Z,1.80
2022-11-27T16:21:32.007Z,1.73
2022-11-27T16:24:04.862Z,1.76
2022-11-27T16:26:33.319Z,1.76
2022-11-27T16:29:02.535Z,1.80
2022-11-27T16:31:30.767Z,1.81
2022-11-27T16:34:02.021Z,1.82
2022-11-27T16:36:29.996Z,1.87
2022-11-27T16:38:58.422Z,1.87
2022-11-27T16:41:27.069Z,1.90
2022-11-27T16:43:58.015Z,1.92
2022-11-27T16:46:29.056Z,1.94
2022-11-27T16:49:00.451Z,1.98
2022-11-27T16:51:34.069Z,1.99
2022-11-27T16:54:05.497Z,2.00
2022-11-27T16:56:36.111Z,2.06
2022-11-27T16:59:12.366Z,2.13
2022-11-27T17:01:41.896Z,2.11
2022-11-27T17:04:17.032Z,2.10
2022-11-27T17:06:46.117Z,2.07
2022-11-27T17:09:15.313Z,2.06
2022-11-27T17:11:48.968Z,2.10
2022-11-27T17:14:20.636Z,2.04
2022-11-27T17:16:49.827Z,2.08
2022-11-27T17:19:19.392Z,2.15
2022-11-27T17:21:48.480Z,2.20
2022-11-27T17:24:18.219Z,2.24
2022-11-27T17:26:48.177Z,2.24
2022-11-27T17:29:19.569Z,2.31
2022-11-27T17:31:51.335Z,2.30
2022-11-27T17:34:20.938Z,2.34
2022-11-27T17:36:57.678Z,2.34
2022-11-27T17:39:26.218Z,2.39
2022-11-27T17:41:54.174Z,2.36
2022-11-27T17:44:22.843Z,2.38
2022-11-27T17:46:51.270Z,2.37
2022-11-27T17:49:22.151Z,2.40
2022-11-27T17:51:51.654Z,2.42
2022-11-27T17:54:21.358Z,2.44
2022-11-27T17:56:52.007Z,2.48
2022-11-27T17:59:21.041Z,2.49
2022-11-27T18:01:51.532Z,2.52
2022-11-27T18:04:21.248Z,2.53
2022-11-27T18:06:49.585Z,2.57
2022-11-27T18:09:18.738Z,2.49
2022-11-27T18:11:48.094Z,2.54
2022-11-27T18:14:17.532Z,2.57
2022-11-27T18:16:45.718Z,2.57
2022-11-27T18:19:14.264Z,2.52
2022-11-27T18:21:42.501Z,2.50
2022-11-27T18:24:26.139Z,2.48
2022-11-27T18:27:10.536Z,2.46
2022-11-27T18:29:41.993Z,2.40
2022-11-27T18:32:12.189Z,2.37
2022-11-27T18:34:41.578Z,2.37
2022-11-27T18:37:10.691Z,2.39
2022-11-27T18:39:40.703Z,2.40
2022-11-27T18:42:09.121Z,2.43
2022-11-27T18:44:44.398Z,2.40
2022-11-27T18:47:15.119Z,2.41
2022-11-27T18:49:45.696Z,2.47
2022-11-27T18:52:14.406Z,2.46
2022-11-27T18:54:44.579Z,2.52
2022-11-27T18:57:14.118Z,2.57
2022-11-27T18:59:45.433Z,2.55
2022-11-27T19:02:13.946Z,2.59
2022-11-27T19:04:44.894Z,2.52
2022-11-27T19:07:13.650Z,2.53
2022-11-27T19:09:42.317Z,2.57
2022-11-27T19:12:10.841Z,2.57
2022-11-27T19:14:40.641Z,2.59
2022-11-27T19:17:09.889Z,2.61
2022-11-27T19:19:55.032Z,2.62
2022-11-27T19:22:23.209Z,2.64
2022-11-27T19:24:51.717Z,2.64
2022-11-27T19:27:19.504Z,2.61
2022-11-27T19:29:49.512Z,2.63
2022-11-27T19:32:18.528Z,2.67
2022-11-27T19:34:47.233Z,2.71
2022-11-27T19:37:14.989Z,2.65
2022-11-27T19:39:43.487Z,2.63
2022-11-27T19:42:11.771Z,2.65
2022-11-27T19:44:40.710Z,2.66
2022-11-27T19:47:10.269Z,2.65
2022-11-27T19:49:39.374Z,2.69
2022-11-27T19:52:10.459Z,2.72
2022-11-27T19:54:39.575Z,2.68
2022-11-27T19:57:08.817Z,2.71
2022-11-27T19:59:38.442Z,2.72
2022-11-27T20:02:09.790Z,2.71
2022-11-27T20:04:38.754Z,2.74
2022-11-27T20:07:08.537Z,2.72
2022-11-27T20:09:37.193Z,2.72
2022-11-27T20:12:06.006Z,2.79
2022-11-27T20:14:35.954Z,2.76
2022-11-27T20:17:04.314Z,2.74
2022-11-27T20:19:33.987Z,2.79
2022-11-27T20:22:02.727Z,2.78
2022-11-27T20:24:32.378Z,2.77
2022-11-27T20:27:01.213Z,2.80
2022-11-27T20:29:29.778Z,2.80
2022-11-27T20:32:00.615Z,2.81
2022-11-27T20:34:32.733Z,2.82
2022-11-27T20:37:00.955Z,2.85
2022-11-27T20:39:29.764Z,2.83
2022-11-27T20:41:58.555Z,2.83
2022-11-27T20:44:28.229Z,2.83
2022-11-27T20:46:56.538Z,2.77
2022-11-27T20:49:25.919Z,2.81
2022-11-27T20:51:55.587Z,2.86
2022-11-27T20:54:24.726Z,2.80
2022-11-27T20:56:52.703Z,2.89
2022-11-27T20:59:22.717Z,2.90
2022-11-27T21:01:51.746Z,2.84
2022-11-27T21:04:25.401Z,2.74
2022-11-27T21:06:54.640Z,2.78
2022-11-27T21:09:24.096Z,2.81
2022-11-27T21:11:52.081Z,2.84
2022-11-27T21:14:20.677Z,2.85
2022-11-27T21:16:51.193Z,2.93
2022-11-27T21:19:21.807Z,2.98
2022-11-27T21:21:51.987Z,3.00
2022-11-27T21:24:21.636Z,3.01
2022-11-27T21:26:50.608Z,3.00
2022-11-27T21:29:18.952Z,3.03
2022-11-27T21:31:48.214Z,3.02
2022-11-27T21:34:17.166Z,3.01
2022-11-27T21:36:45.363Z,2.96
2022-11-27T21:39:20.746Z,2.96
2022-11-27T21:41:50.506Z,2.98
2022-11-27T21:44:21.298Z,2.99
2022-11-27T21:46:50.324Z,2.95
2022-11-27T21:49:21.300Z,2.94
2022-11-27T21:51:53.850Z,2.90
2022-11-27T21:54:29.608Z,2.90
2022-11-27T21:56:57.432Z,2.93
2022-11-27T21:59:25.962Z,2.92
2022-11-27T22:01:53.835Z,2.87
2022-11-27T22:04:22.373Z,2.94
2022-11-27T22:06:53.116Z,2.95
2022-11-27T22:09:21.663Z,2.94
2022-11-27T22:11:49.586Z,2.93
2022-11-27T22:14:17.400Z,2.92
2022-11-27T22:16:46.964Z,2.92
2022-11-27T22:19:16.790Z,2.86
2022-11-27T22:21:45.422Z,2.90
2022-11-27T22:24:18.914Z,2.82
2022-11-27T22:26:51.576Z,2.80
2022-11-27T22:29:19.896Z,2.75
2022-11-27T22:31:47.625Z,2.74
2022-11-27T22:34:16.851Z,2.75
2022-11-27T22:36:45.353Z,2.69
2022-11-27T22:39:14.924Z,2.72
2022-11-27T22:41:43.556Z,2.71
2022-11-27T22:44:16.227Z,2.64
2022-11-27T22:46:44.981Z,2.61
2022-11-27T22:49:16.251Z,2.62
2022-11-27T22:51:45.437Z,2.60
2022-11-27T22:54:17.449Z,2.63
2022-11-27T22:56:46.862Z,2.65
2022-11-27T22:59:32.829Z,2.64
2022-11-27T23:02:03.216Z,2.64
2022-11-27T23:04:32.107Z,2.61
2022-11-27T23:07:00.181Z,2.63
2022-11-27T23:09:30.117Z,2.58
2022-11-27T23:11:58.863Z,2.62
2022-11-27T23:14:27.441Z,2.56
2022-11-27T23:16:56.187Z,2.49
2022-11-27T23:19:24.756Z,2.44
2022-11-27T23:21:52.511Z,2.47
2022-11-27T23:24:20.454Z,2.49
2022-11-27T23:26:48.786Z,2.46
2022-11-27T23:29:16.862Z,2.38
2022-11-27T23:31:45.216Z,2.33
2022-11-27T23:34:16.201Z,2.37
2022-11-27T23:36:44.546Z,2.43
2022-11-27T23:39:13.646Z,2.44
2022-11-27T23:41:41.967Z,2.48
2022-11-27T23:44:10.654Z,2.45
2022-11-27T23:46:38.376Z,2.48
2022-11-27T23:49:06.512Z,2.49
2022-11-27T23:51:34.784Z,2.52
2022-11-27T23:54:08.585Z,2.50
2022-11-27T23:56:37.544Z,2.51
2022-11-27T23:59:06.203Z,2.51
